sensor_id;sensor_type;location;lat;lon;timestamp;pressure;altitude;pressure_sealevel;temperature
77385;BMP280;66444;49.680;18.538;2023-02-28T00:03:16;98557.35586973363;;;1.3510805126279593
77385;BMP280;66444;49.680;18.538;2023-02-28T00:08:22;98561.01446683686;;;1.3408852094318717
77385;BMP280;66444;49.680;18.538;2023-02-28T00:13:27;98556.81100740212;;;1.3306898829527198
77385;BMP280;66444;49.680;18.538;2023-02-28T00:18:32;98557.8488155077;;;1.3204945331905038
77385;BMP280;66444;49.680;18.538;2023-02-28T00:23:37;98562.5446955432;;;1.3001037638168782
77385;BMP280;66444;49.680;18.538;2023-02-28T00:28:42;98563.38873017312;;;1.3561781554948538
77385;BMP280;66444;49.680;18.538;2023-02-28T00:33:47;98563.68696124972;;;1.3918614925816655
77385;BMP280;66444;49.680;18.538;2023-02-28T00:38:52;98555.82427979526;;;1.3918614925816655
77385;BMP280;66444;49.680;18.538;2023-02-28T00:43:57;98553.10040950883;;;1.2899083442054688
77385;BMP280;66444;49.680;18.538;2023-02-28T00:49:01;98553.5927195485;;;1.2593219456728548
77385;BMP280;66444;49.680;18.538;2023-02-28T00:54:06;98550.9187751791;;;1.2083441491238773
77385;BMP280;66444;49.680;18.538;2023-02-28T00:59:11;98553.78450671158;;;1.1930506966542453
77385;BMP280;66444;49.680;18.538;2023-02-28T01:04:17;98544.83285384772;;;1.1522679006215184
77385;BMP280;66444;49.680;18.538;2023-02-28T01:09:27;98549.82711231396;;;1.1675614927895368
77385;BMP280;66444;49.680;18.538;2023-02-28T01:14:32;98539.29280976742;;;1.1165826485026629
77385;BMP280;66444;49.680;18.538;2023-02-28T01:19:37;98543.49540466143;;;1.1267784639261662
77385;BMP280;66444;49.680;18.538;2023-02-28T01:24:42;98530.83244528505;;;1.045211288612336
77385;BMP280;66444;49.680;18.538;2023-02-28T01:29:47;98535.95605926408;;;0.9432502239942551
77385;BMP280;66444;49.680;18.538;2023-02-28T01:34:52;98536.8717060997;;;0.8310903637204319
77385;BMP280;66444;49.680;18.538;2023-02-28T01:39:57;98545.69938377127;;;0.7699110706802458
77385;BMP280;66444;49.680;18.538;2023-02-28T01:45:06;98536.98988681172;;;0.7138293157331645
77385;BMP280;66444;49.680;18.538;2023-02-28T01:50:23;98531.44763028718;;;0.6781405595131218
77385;BMP280;66444;49.680;18.538;2023-02-28T01:55:32;98522.43143515234;;;0.5863681624177843
77385;BMP280;66444;49.680;18.538;2023-02-28T02:00:38;98523.33195847108;;;0.47419933816418053
77385;BMP280;66444;49.680;18.538;2023-02-28T02:05:43;98512.96921670198;;;0.3569289187435061
77385;BMP280;66444;49.680;18.538;2023-02-28T02:10:49;98509.34826225287;;;0.1988639162387699
77385;BMP280;66444;49.680;18.538;2023-02-28T02:16:00;98507.61685949408;;;0.08668535966426134
77385;BMP280;66444;49.680;18.538;2023-02-28T02:21:16;98511.66413245336;;;-0.005099191190674901
77385;BMP280;66444;49.680;18.538;2023-02-28T02:27:48;98518.5585313143;;;-0.11218355079181493
77385;BMP280;66444;49.680;18.538;2023-02-28T02:33:10;98517.6038477043;;;-0.21927047735080124
77385;BMP280;66444;49.680;18.538;2023-02-28T02:40:38;98519.4939527581;;;-0.3416586794890463
77385;BMP280;66444;49.680;18.538;2023-02-28T02:45:52;98518.85115432327;;;-0.41305334572680297
77385;BMP280;66444;49.680;18.538;2023-02-28T02:51:01;98529.12647549858;;;-0.5150477051269263
77385;BMP280;66444;49.680;18.538;2023-02-28T02:56:12;98536.36175818638;;;-0.7037434080149978
77385;BMP280;66444;49.680;18.538;2023-02-28T03:01:21;98536.63513436404;;;-0.8363451556302607
77385;BMP280;66444;49.680;18.538;2023-02-28T03:06:30;98540.0738163586;;;-0.9485497077461332
77385;BMP280;66444;49.680;18.538;2023-02-28T03:11:35;98537.4919030099;;;-1.065857479022816
77385;BMP280;66444;49.680;18.538;2023-02-28T03:16:47;98541.37696736686;;;-1.2086710957344622
77385;BMP280;66444;49.680;18.538;2023-02-28T03:22:08;98539.45483397022;;;-1.2545764416921883
77385;BMP280;66444;49.680;18.538;2023-02-28T03:27:23;98535.94507123542;;;-1.3106836159247905
77385;BMP280;66444;49.680;18.538;2023-02-28T03:32:33;98548.2062111822;;;-1.4331017135176807
77385;BMP280;66444;49.680;18.538;2023-02-28T03:37:43;98550.70317433302;;;-1.4841102437116205
77385;BMP280;66444;49.680;18.538;2023-02-28T03:42:51;98562.0439582196;;;-1.5453212482854723
77385;BMP280;66444;49.680;18.538;2023-02-28T03:48:02;98554.21502933853;;;-1.6626446832437067
77385;BMP280;66444;49.680;18.538;2023-02-28T03:53:14;98554.7740075557;;;-1.7595663650427014
77385;BMP280;66444;49.680;18.538;2023-02-28T03:58:27;98550.45960456152;;;-1.8207811414729804
77385;BMP280;66444;49.680;18.538;2023-02-28T04:03:38;98561.21520729589;;;-1.9024021472316235
77385;BMP280;66444;49.680;18.538;2023-02-28T04:08:43;98566.30549837685;;;-1.9534160325303673
77385;BMP280;66444;49.680;18.538;2023-02-28T04:13:49;98566.85030059938;;;-2.0503440182190387
77385;BMP280;66444;49.680;18.538;2023-02-28T04:18:54;98568.53531357148;;;-2.106461180886254
77385;BMP280;66444;49.680;18.538;2023-02-28T04:23:59;98564.656951113;;;-2.198290784470737
77385;BMP280;66444;49.680;18.538;2023-02-28T04:29:07;98568.72199649917;;;-2.23910454697907
77385;BMP280;66444;49.680;18.538;2023-02-28T04:34:12;98562.5866614917;;;-2.2952240786980838
77385;BMP280;66444;49.680;18.538;2023-02-28T04:39:17;98555.2142643118;;;-2.325835029222071
77385;BMP280;66444;49.680;18.538;2023-02-28T04:44:23;98572.5210689376;;;-2.381955649424344
77385;BMP280;66444;49.680;18.538;2023-02-28T04:49:28;98572.25201015288;;;-2.4839949451386927
77385;BMP280;66444;49.680;18.538;2023-02-28T04:54:33;98566.24873686227;;;-2.4890969710424544
77385;BMP280;66444;49.680;18.538;2023-02-28T04:59:37;98563.8643872731;;;-2.504403083678335
77385;BMP280;66444;49.680;18.538;2023-02-28T05:04:40;98568.49747821048;;;-2.5248113153502345
77385;BMP280;66444;49.680;18.538;2023-02-28T05:09:44;98562.71417519038;;;-2.5452196401543916
77385;BMP280;66444;49.680;18.538;2023-02-28T05:14:47;98565.89341308663;;;-2.5248113153502345
77385;BMP280;66444;49.680;18.538;2023-02-28T05:19:51;98572.25201015288;;;-2.4839949451386927
77385;BMP280;66444;49.680;18.538;2023-02-28T05:24:54;98578.0357057806;;;-2.4635868997313084
77385;BMP280;66444;49.680;18.538;2023-02-28T05:29:58;98592.29102945013;;;-2.4890969710424544
77385;BMP280;66444;49.680;18.538;2023-02-28T05:35:02;98592.20829235604;;;-2.4227710883133113
77385;BMP280;66444;49.680;18.538;2023-02-28T05:40:08;98596.18310130853;;;-2.3972613953519613
77385;BMP280;66444;49.680;18.538;2023-02-28T05:45:12;98597.38036047058;;;-2.23910454697907
77385;BMP280;66444;49.680;18.538;2023-02-28T05:50:16;98607.84490031633;;;-2.121765983849764
77385;BMP280;66444;49.680;18.538;2023-02-28T05:55:20;98610.48864369896;;;-2.0044304999057205
77385;BMP280;66444;49.680;18.538;2023-02-28T06:00:23;98612.77825682887;;;-1.922807631501928
77385;BMP280;66444;49.680;18.538;2023-02-28T06:05:27;98623.01231511585;;;-1.7901736484840511
77385;BMP280;66444;49.680;18.538;2023-02-28T06:10:31;98625.8678089835;;;-1.688150185253471
77385;BMP280;66444;49.680;18.538;2023-02-28T06:15:34;98635.52534067738;;;-1.5759270648937673
77385;BMP280;66444;49.680;18.538;2023-02-28T06:20:40;98632.82462564808;;;-1.3922953084576875
77385;BMP280;66444;49.680;18.538;2023-02-28T06:25:44;98637.36973372355;;;-1.2290734135080128
77385;BMP280;66444;49.680;18.538;2023-02-28T06:30:48;98637.14068421599;;;-1.0964600127190351
77385;BMP280;66444;49.680;18.538;2023-02-28T06:35:52;98641.66859468265;;;-0.933248921111226
77385;BMP280;66444;49.680;18.538;2023-02-28T06:40:56;98645.85270144613;;;-0.8057444030884653
77385;BMP280;66444;49.680;18.538;2023-02-28T06:46:02;98646.39531785414;;;-0.6680436098016799
77385;BMP280;66444;49.680;18.538;2023-02-28T06:51:09;98645.80485628148;;;-0.5711455952376128
77385;BMP280;66444;49.680;18.538;2023-02-28T06:56:15;98649.83807687683;;;-0.3773558699991554
77385;BMP280;66444;49.680;18.538;2023-02-28T07:01:22;98646.24893755508;;;-0.19887276962399483
77385;BMP280;66444;49.680;18.538;2023-02-28T07:06:26;98656.04252570911;;;0.015297538647428156
77385;BMP280;66444;49.680;18.538;2023-02-28T07:11:30;98658.53237548181;;;0.24985323790460826
77385;BMP280;66444;49.680;18.538;2023-02-28T07:16:35;98658.383567827;;;0.48439662042073905
77385;BMP280;66444;49.680;18.538;2023-02-28T07:21:38;98653.60024267848;;;0.7903042614925653
77385;BMP280;66444;49.680;18.538;2023-02-28T07:26:42;98667.04318183936;;;1.045211288612336
77385;BMP280;66444;49.680;18.538;2023-02-28T07:31:46;98676.20066776243;;;1.2389308969024568
77385;BMP280;66444;49.680;18.538;2023-02-28T07:36:52;98670.59736781915;;;1.3714710491709412
77385;BMP280;66444;49.680;18.538;2023-02-28T07:41:56;98673.20769448236;;;1.5906634351238609
77385;BMP280;66444;49.680;18.538;2023-02-28T07:47:00;98671.24130664422;;;1.712998691573739
77385;BMP280;66444;49.680;18.538;2023-02-28T07:52:04;98675.79933602459;;;1.8098450584802777
77385;BMP280;66444;49.680;18.538;2023-02-28T07:57:09;98678.96734277677;;;1.8302334995474667
77385;BMP280;66444;49.680;18.538;2023-02-28T08:02:13;98669.56509085176;;;1.8710101022850723
77385;BMP280;66444;49.680;18.538;2023-02-28T08:07:18;98662.73530077351;;;1.8608159865252674
77385;BMP280;66444;49.680;18.538;2023-02-28T08:12:22;98658.47887236923;;;1.7996508030220866
77385;BMP280;66444;49.680;18.538;2023-02-28T08:17:25;98666.15017078986;;;1.8659130473155527
77385;BMP280;66444;49.680;18.538;2023-02-28T08:22:29;98665.2071015831;;;1.978046912048012
77385;BMP280;66444;49.680;18.538;2023-02-28T08:27:33;98668.62239657601;;;1.9831438389606775
77385;BMP280;66444;49.680;18.538;2023-02-28T08:32:37;98675.99680634736;;;2.0137252782005817
77385;BMP280;66444;49.680;18.538;2023-02-28T08:37:41;98668.9634436689;;;2.0697907058987766
77385;BMP280;66444;49.680;18.538;2023-02-28T08:42:45;98680.92648705214;;;2.2481760174036025
77385;BMP280;66444;49.680;18.538;2023-02-28T08:47:49;98682.21740412925;;;2.2226928380317985
77385;BMP280;66444;49.680;18.538;2023-02-28T08:52:52;98679.84235091036;;;2.2074028605595233
77385;BMP280;66444;49.680;18.538;2023-02-28T08:57:56;98682.17371806061;;;2.1717260427307337
77385;BMP280;66444;49.680;18.538;2023-02-28T09:03:00;98679.54935690116;;;2.1717260427307337
77385;BMP280;66444;49.680;18.538;2023-02-28T09:08:04;98670.34234798801;;;2.146242426801473
77385;BMP280;66444;49.680;18.538;2023-02-28T09:13:08;98669.71724442924;;;2.345010771881789
77385;BMP280;66444;49.680;18.538;2023-02-28T09:18:12;98674.46611693923;;;2.3755897314753383
77385;BMP280;66444;49.680;18.538;2023-02-28T09:23:16;98685.67645433373;;;2.278755640564486
77385;BMP280;66444;49.680;18.538;2023-02-28T09:28:20;98676.67564593727;;;2.1870161424390973
77385;BMP280;66444;49.680;18.538;2023-02-28T09:33:25;98675.092307448;;;2.1768227484542875
77385;BMP280;66444;49.680;18.538;2023-02-28T09:38:29;98673.17288574751;;;2.4010720377322285
77385;BMP280;66444;49.680;18.538;2023-02-28T09:43:34;98679.0747690461;;;2.574347861111164
77385;BMP280;66444;49.680;18.538;2023-02-28T09:48:44;98673.4454106245;;;2.8087691472377627
77385;BMP280;66444;49.680;18.538;2023-02-28T09:53:50;98678.75754375497;;;2.910687603848055
77385;BMP280;66444;49.680;18.538;2023-02-28T09:58:57;98682.99466649992;;;2.971837560227141
77385;BMP280;66444;49.680;18.538;2023-02-28T10:04:05;98682.76586013762;;;3.038082400429994
77385;BMP280;66444;49.680;18.538;2023-02-28T10:09:21;98676.15708481095;;;2.9616459590382873
77385;BMP280;66444;49.680;18.538;2023-02-28T10:14:29;98667.78816570419;;;3.043178116623312
77385;BMP280;66444;49.680;18.538;2023-02-28T10:19:39;98678.24852332177;;;2.9412626868113874
77385;BMP280;66444;49.680;18.538;2023-02-28T10:24:48;98667.04330239678;;;3.1399956183508038
77385;BMP280;66444;49.680;18.538;2023-02-28T10:29:54;98659.73128401843;;;3.2622884064912796
77385;BMP280;66444;49.680;18.538;2023-02-28T10:35:00;98665.86105418643;;;3.522149449074641
77385;BMP280;66444;49.680;18.538;2023-02-28T10:40:29;98653.7927417337;;;3.6648118190001697
77385;BMP280;66444;49.680;18.538;2023-02-28T10:45:35;98650.64104631859;;;3.695381733123213
77385;BMP280;66444;49.680;18.538;2023-02-28T10:50:42;98648.51123906572;;;3.562910591857508
77385;BMP280;66444;49.680;18.538;2023-02-28T10:55:49;98641.64655434624;;;3.4508165528066455
77385;BMP280;66444;49.680;18.538;2023-02-28T11:01:10;98635.86821054821;;;3.4813879337627442
77385;BMP280;66444;49.680;18.538;2023-02-28T11:06:19;98636.9293666068;;;3.522149449074641
77385;BMP280;66444;49.680;18.538;2023-02-28T11:11:26;98639.06657150376;;;3.705571657931432
77385;BMP280;66444;49.680;18.538;2023-02-28T11:16:33;98621.7170330713;;;4.001069349236786
77385;BMP280;66444;49.680;18.538;2023-02-28T11:21:45;98628.55029221393;;;4.21503821243532
77385;BMP280;66444;49.680;18.538;2023-02-28T11:26:55;98620.65968688711;;;4.113149558147415
77385;BMP280;66444;49.680;18.538;2023-02-28T11:32:05;98610.66305543363;;;3.9297441130969673
77385;BMP280;66444;49.680;18.538;2023-02-28T11:37:16;98619.08334794037;;;4.052015247987583
77385;BMP280;66444;49.680;18.538;2023-02-28T11:42:26;98616.18998897051;;;3.9654068737756463
77385;BMP280;66444;49.680;18.538;2023-02-28T11:47:47;98619.08334794037;;;4.052015247987583
77385;BMP280;66444;49.680;18.538;2023-02-28T11:53:00;98614.60491415157;;;4.108055064314977
77385;BMP280;66444;49.680;18.538;2023-02-28T11:58:14;98621.16128737738;;;4.3373015242163095
77385;BMP280;66444;49.680;18.538;2023-02-28T12:03:29;98620.11404108333;;;4.2965474594850095
77385;BMP280;66444;49.680;18.538;2023-02-28T12:08:44;98613.73785905597;;;4.56144222128205
77385;BMP280;66444;49.680;18.538;2023-02-28T12:13:59;98605.34948711265;;;4.388243581261486
77385;BMP280;66444;49.680;18.538;2023-02-28T12:19:23;98600.05757763147;;;4.490125949122012
77385;BMP280;66444;49.680;18.538;2023-02-28T12:24:39;98593.66769027454;;;4.704071342991665
77385;BMP280;66444;49.680;18.538;2023-02-28T12:29:54;98597.95799428353;;;4.45956148323603
77385;BMP280;66444;49.680;18.538;2023-02-28T12:35:02;98592.4352527426;;;4.423902674857527
77385;BMP280;66444;49.680;18.538;2023-02-28T12:40:15;98592.71381681808;;;4.357678416883573
77385;BMP280;66444;49.680;18.538;2023-02-28T12:45:24;98594.01316771808;;;4.434090934926644
77385;BMP280;66444;49.680;18.538;2023-02-28T12:50:37;98579.68307082258;;;4.749915448669344
77385;BMP280;66444;49.680;18.538;2023-02-28T12:55:42;98573.57954552645;;;4.846695901220665
77385;BMP280;66444;49.680;18.538;2023-02-28T13:01:02;98589.84065235182;;;5.019876729696989
77385;BMP280;66444;49.680;18.538;2023-02-28T13:06:23;98584.45407916051;;;5.223610266111791
77385;BMP280;66444;49.680;18.538;2023-02-28T13:11:43;98578.05304678071;;;5.335659741377458
77385;BMP280;66444;49.680;18.538;2023-02-28T13:16:51;98572.35662450906;;;5.554657399421558
77385;BMP280;66444;49.680;18.538;2023-02-28T13:22:00;98575.6194640137;;;5.763459096523002
77385;BMP280;66444;49.680;18.538;2023-02-28T13:27:21;98576.08590282763;;;5.83475499600172
77385;BMP280;66444;49.680;18.538;2023-02-28T13:32:30;98575.66209790728;;;5.712532755546272
77385;BMP280;66444;49.680;18.538;2023-02-28T13:37:42;98574.83176342543;;;6.048635849216953
77385;BMP280;66444;49.680;18.538;2023-02-28T13:42:47;98572.89063551078;;;5.865310032246635
77385;BMP280;66444;49.680;18.538;2023-02-28T13:47:52;98559.27076875999;;;5.743088629981503
77385;BMP280;66444;49.680;18.538;2023-02-28T13:53:05;98557.36017285474;;;6.089373895199969
77385;BMP280;66444;49.680;18.538;2023-02-28T13:58:36;98551.01092860772;;;6.099558348488062
77385;BMP280;66444;49.680;18.538;2023-02-28T14:03:54;98554.74283478814;;;6.944786806637421
77385;BMP280;66444;49.680;18.538;2023-02-28T14:09:16;98545.3723904654;;;7.535333175351843
77385;BMP280;66444;49.680;18.538;2023-02-28T14:14:59;98539.22964967921;;;8.543153791408987
77385;BMP280;66444;49.680;18.538;2023-02-28T14:20:04;98544.42545124679;;;8.594047768926249
77385;BMP280;66444;49.680;18.538;2023-02-28T14:25:10;98537.58950262485;;;9.479509798903019
77385;BMP280;66444;49.680;18.538;2023-02-28T14:30:39;98539.46672950195;;;10.354620901681482
77385;BMP280;66444;49.680;18.538;2023-02-28T14:36:01;98527.75861082837;;;10.6242425235454
77385;BMP280;66444;49.680;18.538;2023-02-28T14:41:19;98538.40064685083;;;10.883674307912589
77385;BMP280;66444;49.680;18.538;2023-02-28T14:46:26;98539.91862810156;;;11.23973249825649
77385;BMP280;66444;49.680;18.538;2023-02-28T14:51:39;98546.34416724609;;;11.229559802915901
77385;BMP280;66444;49.680;18.538;2023-02-28T14:56:43;98536.02352480374;;;11.127831568941474
77385;BMP280;66444;49.680;18.538;2023-02-28T15:01:52;98536.21126042835;;;10.644590661628172
77385;BMP280;66444;49.680;18.538;2023-02-28T15:07:16;98541.61512413164;;;10.161297221900895
77385;BMP280;66444;49.680;18.538;2023-02-28T15:12:20;98539.75992217263;;;10.2528726442717
77385;BMP280;66444;49.680;18.538;2023-02-28T15:17:25;98546.31493010558;;;10.191822572238744
77385;BMP280;66444;49.680;18.538;2023-02-28T15:22:33;98542.58994117849;;;9.805152651388198
77385;BMP280;66444;49.680;18.538;2023-02-28T15:27:42;98550.20842293219;;;10.130771662015468
77385;BMP280;66444;49.680;18.538;2023-02-28T15:33:15;98547.21595676623;;;10.059544540708885
77385;BMP280;66444;49.680;18.538;2023-02-28T15:38:23;98541.71766357566;;;9.092777945101261
77385;BMP280;66444;49.680;18.538;2023-02-28T15:43:29;98539.27601154048;;;8.767082938551903
77385;BMP280;66444;49.680;18.538;2023-02-28T15:48:35;98540.84513691573;;;8.777261268394067
77385;BMP280;66444;49.680;18.538;2023-02-28T15:53:48;98546.01819656628;;;8.466811733739451
77385;BMP280;66444;49.680;18.538;2023-02-28T15:59:04;98545.6425500826;;;7.9832816216629
77385;BMP280;66444;49.680;18.538;2023-02-28T16:04:13;98544.13046395867;;;7.321523708011955
77385;BMP280;66444;49.680;18.538;2023-02-28T16:09:19;98551.35386331785;;;6.2726904920768
77385;BMP280;66444;49.680;18.538;2023-02-28T16:14:24;98547.77017304747;;;5.259262677468359
77385;BMP280;66444;49.680;18.538;2023-02-28T16:19:29;98552.12085908541;;;4.469749661814421
77385;BMP280;66444;49.680;18.538;2023-02-28T16:24:33;98558.54512640905;;;4.001069349236786
77385;BMP280;66444;49.680;18.538;2023-02-28T16:29:37;98564.34201119684;;;3.562910591857508
77385;BMP280;66444;49.680;18.538;2023-02-28T16:34:43;98563.76745223497;;;3.2368110187817365
77385;BMP280;66444;49.680;18.538;2023-02-28T16:39:47;98565.79326383575;;;2.9616459590382873
77385;BMP280;66444;49.680;18.538;2023-02-28T16:44:51;98572.7822573285;;;2.7017522619571537
77385;BMP280;66444;49.680;18.538;2023-02-28T16:49:56;98575.55890957551;;;2.482614439865574
77385;BMP280;66444;49.680;18.538;2023-02-28T16:55:00;98577.55531259447;;;2.309335054177791
77385;BMP280;66444;49.680;18.538;2023-02-28T17:00:08;98583.20413111159;;;2.1258554292842744
77385;BMP280;66444;49.680;18.538;2023-02-28T19:56:40;98598.72517663808;;;-0.16827638265676798
77385;BMP280;66444;49.680;18.538;2023-02-28T20:01:47;98604.33351693132;;;-0.24986721356399358
77385;BMP280;66444;49.680;18.538;2023-02-28T20:06:48;98608.67679372155;;;-0.30596177419647574
77385;BMP280;66444;49.680;18.538;2023-02-28T20:11:50;98604.61792265747;;;-0.38245549192652106
77385;BMP280;66444;49.680;18.538;2023-02-28T20:16:56;98592.95180151386;;;-0.4742496819701046
77385;BMP280;66444;49.680;18.538;2023-02-28T20:21:57;98594.34814546094;;;-0.5660457579419017
77385;BMP280;66444;49.680;18.538;2023-02-28T20:26:59;98591.96804292954;;;-0.5813452872913331
77385;BMP280;66444;49.680;18.538;2023-02-28T20:32:05;98587.53649694003;;;-0.5762454383540898
77385;BMP280;66444;49.680;18.538;2023-02-28T20:37:06;98584.82786748183;;;-0.6272441896609962
77385;BMP280;66444;49.680;18.538;2023-02-28T20:42:08;98582.6799575831;;;-0.6578437198419124
77385;BMP280;66444;49.680;18.538;2023-02-28T20:47:09;98580.99542694761;;;-0.7190434088464827
77385;BMP280;66444;49.680;18.538;2023-02-28T20:52:11;98579.40865536578;;;-0.7292434385046362
77385;BMP280;66444;49.680;18.538;2023-02-28T20:57:12;98580.20203993049;;;-0.7241434207651765
77385;BMP280;66444;49.680;18.538;2023-02-28T21:02:14;98580.66512418944;;;-0.754743614513427
77385;BMP280;66444;49.680;18.538;2023-02-28T21:07:16;98586.0192747782;;;-0.8210447531659156
77385;BMP280;66444;49.680;18.538;2023-02-28T21:12:17;98579.6711916305;;;-0.861845942819491
77385;BMP280;66444;49.680;18.538;2023-02-28T21:17:19;98588.42604854744;;;-0.9230484257917851
77385;BMP280;66444;49.680;18.538;2023-02-28T21:22:23;98585.71135588625;;;-0.9740511352196336
77385;BMP280;66444;49.680;18.538;2023-02-28T21:27:24;98587.19392674945;;;-1.014853721857071
77385;BMP280;66444;49.680;18.538;2023-02-28T21:32:26;98587.54612776454;;;-1.0964600127190351
77385;BMP280;66444;49.680;18.538;2023-02-28T21:37:28;98592.2014510921;;;-1.11686181826517
77385;BMP280;66444;49.680;18.538;2023-02-28T21:42:29;98584.37105956771;;;-1.11686181826517
77385;BMP280;66444;49.680;18.538;2023-02-28T21:47:31;98592.53774139554;;;-1.0811587196774781
77385;BMP280;66444;49.680;18.538;2023-02-28T21:52:33;98586.98118772767;;;-1.11686181826517
77385;BMP280;66444;49.680;18.538;2023-02-28T21:57:35;98586.764089752;;;-1.2188722429797054
77385;BMP280;66444;49.680;18.538;2023-02-28T22:02:36;98589.7184840023;;;-1.300482259131968
77385;BMP280;66444;49.680;18.538;2023-02-28T22:07:38;98608.55101545199;;;-1.280079615395516
77385;BMP280;66444;49.680;18.538;2023-02-28T22:12:40;98606.16868779674;;;-1.295381589466706
77385;BMP280;66444;49.680;18.538;2023-02-28T22:17:41;98602.5380587608;;;-1.28518026759848
77385;BMP280;66444;49.680;18.538;2023-02-28T22:22:43;98598.67982640704;;;-1.2596770647913218
77385;BMP280;66444;49.680;18.538;2023-02-28T22:27:45;98609.57219792916;;;-1.2902809256222099
77385;BMP280;66444;49.680;18.538;2023-02-28T22:32:47;98609.79915510605;;;-1.3055829346179961
77385;BMP280;66444;49.680;18.538;2023-02-28T22:37:49;98601.63101571989;;;-1.341287826001644
77385;BMP280;66444;49.680;18.538;2023-02-28T22:42:50;98601.0637011835;;;-1.3616907491348684
77385;BMP280;66444;49.680;18.538;2023-02-28T22:47:52;98600.9492419245;;;-1.4126984644215554
77385;BMP280;66444;49.680;18.538;2023-02-28T22:52:54;98597.77261531832;;;-1.4331017135176807
77385;BMP280;66444;49.680;18.538;2023-02-28T22:57:55;98594.02808183675;;;-1.473908491106704
77385;BMP280;66444;49.680;18.538;2023-02-28T23:02:57;98592.66925230525;;;-1.38209376540035
77385;BMP280;66444;49.680;18.538;2023-02-28T23:07:59;98600.15587430158;;;-1.300482259131968
77385;BMP280;66444;49.680;18.538;2023-02-28T23:13:01;98596.86642535834;;;-1.3718922456260771
77385;BMP280;66444;49.680;18.538;2023-02-28T23:18:03;98605.59896706496;;;-1.4331017135176807
77385;BMP280;66444;49.680;18.538;2023-02-28T23:23:04;98604.91403799782;;;-1.504513818770647
77385;BMP280;66444;49.680;18.538;2023-02-28T23:28:07;98603.77651802826;;;-1.5453212482854723
77385;BMP280;66444;49.680;18.538;2023-02-28T23:33:09;98607.40444338808;;;-1.5555231638718396
77385;BMP280;66444;49.680;18.538;2023-02-28T23:38:11;98615.10942242587;;;-1.6065330910496414
77385;BMP280;66444;49.680;18.538;2023-02-28T23:43:12;98605.92132355324;;;-1.6320382729172707
77385;BMP280;66444;49.680;18.538;2023-02-28T23:48:14;98606.4733481804;;;-1.7289592911489309
77385;BMP280;66444;49.680;18.538;2023-02-28T23:53:16;98601.01247697609;;;-1.8309836857020856
77385;BMP280;66444;49.680;18.538;2023-02-28T23:58:18;98611.76093555334;;;-1.9126048777252436
